createdAt,value
2023-02-02T00:01:51.651Z,27.00
2023-02-02T00:04:27.292Z,27.50
2023-02-02T00:06:59.247Z,25.00
2023-02-02T00:09:30.615Z,24.00
2023-02-02T00:12:00.630Z,23.50
2023-02-02T00:14:29.296Z,23.50
2023-02-02T00:16:58.814Z,24.00
2023-02-02T00:19:33.655Z,23.00
2023-02-02T00:22:02.825Z,23.50
2023-02-02T00:24:31.527Z,23.00
2023-02-02T00:27:00.816Z,28.00
2023-02-02T00:29:31.446Z,23.00
2023-02-02T00:32:00.132Z,27.00
2023-02-02T00:34:28.924Z,27.50
2023-02-02T00:36:57.708Z,28.00
2023-02-02T00:39:27.006Z,28.00
2023-02-02T00:41:56.622Z,30.00
2023-02-02T00:47:12.825Z,34.00
2023-02-02T00:49:41.616Z,27.50
2023-02-02T00:52:10.297Z,35.50
2023-02-02T00:54:39.083Z,29.00
2023-02-02T00:57:07.875Z,34.00
2023-02-02T00:59:36.555Z,36.00
2023-02-02T01:02:05.461Z,33.00
2023-02-02T01:04:34.235Z,29.00
2023-02-02T01:07:03.739Z,41.00
2023-02-02T01:09:32.327Z,38.00
2023-02-02T01:12:01.109Z,41.50
2023-02-02T01:14:29.899Z,32.00
2023-02-02T01:16:58.785Z,31.00
2023-02-02T01:19:28.096Z,31.00
2023-02-02T01:21:57.080Z,36.00
2023-02-02T01:24:25.977Z,41.00
2023-02-02T01:26:54.553Z,28.00
2023-02-02T01:29:23.441Z,28.00
2023-02-02T01:31:52.795Z,24.00
2023-02-02T01:34:22.147Z,19.00
2023-02-02T01:36:50.729Z,24.00
2023-02-02T01:39:19.616Z,23.00
2023-02-02T01:41:48.404Z,18.50
2023-02-02T01:44:51.394Z,23.00
2023-02-02T01:47:23.869Z,18.00
2023-02-02T01:49:55.544Z,22.00
2023-02-02T01:52:27.793Z,23.00
2023-02-02T01:55:01.501Z,19.00
2023-02-02T02:00:28.458Z,33.00
2023-02-02T02:03:09.023Z,26.00
2023-02-02T02:08:36.599Z,30.00
2023-02-02T02:11:06.515Z,26.00
2023-02-02T02:13:57.434Z,29.00
2023-02-02T02:16:48.489Z,26.50
2023-02-02T02:19:58.284Z,22.50
2023-02-02T02:23:27.585Z,23.00
2023-02-02T02:26:18.095Z,22.00
2023-02-02T02:29:26.090Z,21.00
2023-02-02T02:32:04.100Z,19.00
2023-02-02T02:34:48.450Z,22.00
2023-02-02T02:37:40.892Z,19.00
2023-02-02T02:40:34.357Z,15.00
2023-02-02T02:43:46.767Z,23.00
2023-02-02T02:46:15.381Z,28.50
2023-02-02T02:48:47.310Z,21.00
2023-02-02T02:59:34.381Z,23.00
2023-02-02T03:02:41.040Z,23.00
2023-02-02T03:05:40.971Z,22.00
2023-02-02T03:08:17.853Z,27.00
2023-02-02T03:10:47.562Z,18.00
2023-02-02T03:13:17.164Z,41.50
2023-02-02T03:15:46.532Z,19.00
2023-02-02T03:18:18.548Z,19.00
2023-02-02T03:20:47.215Z,19.00
2023-02-02T03:23:16.003Z,26.00
2023-02-02T03:25:45.204Z,23.00
2023-02-02T03:28:15.627Z,25.00
2023-02-02T03:30:46.593Z,27.00
2023-02-02T03:35:44.963Z,18.50
2023-02-02T03:38:13.645Z,25.00
2023-02-02T03:40:42.433Z,23.00
2023-02-02T03:43:11.225Z,26.00
2023-02-02T03:45:41.148Z,26.00
2023-02-02T03:50:39.126Z,22.50
2023-02-02T03:53:07.703Z,27.00
2023-02-02T03:55:36.592Z,25.50
2023-02-02T03:58:05.280Z,23.00
2023-02-02T04:00:33.970Z,26.00
2023-02-02T04:03:03.095Z,25.50
2023-02-02T04:05:32.259Z,30.00
2023-02-02T04:08:00.841Z,23.00
2023-02-02T04:10:29.524Z,23.00
2023-02-02T04:12:58.316Z,26.00
2023-02-02T04:15:27.227Z,27.00
2023-02-02T04:17:56.091Z,25.50
2023-02-02T04:20:24.780Z,26.00
2023-02-02T04:22:54.922Z,22.00
2023-02-02T04:25:24.019Z,27.00
2023-02-02T04:27:53.194Z,26.00
2023-02-02T04:30:21.771Z,27.00
2023-02-02T04:32:51.806Z,33.50
2023-02-02T04:35:20.472Z,32.00
2023-02-02T04:37:49.260Z,37.50
2023-02-02T04:40:18.457Z,35.00
2023-02-02T04:42:47.070Z,36.00
2023-02-02T04:45:15.937Z,31.00
2023-02-02T04:47:44.718Z,31.00
2023-02-02T04:50:13.726Z,18.50
2023-02-02T04:52:42.918Z,10.00
2023-02-02T04:55:11.697Z,25.00
2023-02-02T04:57:40.483Z,33.00
2023-02-02T05:00:11.598Z,20.00
2023-02-02T05:02:41.234Z,19.00
2023-02-02T05:05:12.844Z,24.00
2023-02-02T05:07:41.883Z,27.50
2023-02-02T05:10:11.384Z,24.00
2023-02-02T05:12:39.968Z,22.00
2023-02-02T05:15:09.682Z,27.00
2023-02-02T05:17:38.362Z,21.00
2023-02-02T05:20:07.676Z,24.50
2023-02-02T05:22:36.557Z,31.00
2023-02-02T05:25:07.137Z,24.00
2023-02-02T05:30:04.759Z,27.00
2023-02-02T05:35:02.031Z,22.00
2023-02-02T05:49:53.322Z,24.00
2023-02-02T06:04:47.074Z,22.00
2023-02-02T06:07:15.657Z,22.00
2023-02-02T06:09:44.650Z,25.00
2023-02-02T06:12:13.333Z,21.00
2023-02-02T06:14:42.430Z,25.00
2023-02-02T06:17:11.214Z,25.00
2023-02-02T06:22:08.688Z,24.00
2023-02-02T06:24:37.374Z,26.00
2023-02-02T06:27:06.164Z,30.50
2023-02-02T06:34:32.524Z,27.00
2023-02-02T06:39:29.905Z,39.00
2023-02-02T06:44:32.695Z,40.00
2023-02-02T06:47:01.548Z,48.50
2023-02-02T06:49:30.168Z,43.50
2023-02-02T06:51:59.057Z,75.00
2023-02-02T06:56:56.838Z,55.50
2023-02-02T06:59:25.419Z,62.00
2023-02-02T07:01:54.258Z,38.00
2023-02-02T07:04:23.003Z,137.00
2023-02-02T07:06:51.781Z,50.00
2023-02-02T07:09:20.677Z,29.00
2023-02-02T07:11:49.462Z,35.00
2023-02-02T07:14:18.058Z,55.00
2023-02-02T07:16:46.832Z,26.00
2023-02-02T07:19:15.519Z,28.50
2023-02-02T07:21:44.201Z,41.00
2023-02-02T07:24:12.887Z,33.00
2023-02-02T07:26:41.624Z,25.00
2023-02-02T07:29:14.433Z,50.50
2023-02-02T07:39:09.097Z,49.00
2023-02-02T07:41:38.300Z,45.00
2023-02-02T07:44:17.308Z,36.00
2023-02-02T07:46:48.171Z,63.00
2023-02-02T07:49:18.578Z,53.00
2023-02-02T07:51:49.429Z,68.50
2023-02-02T07:54:17.997Z,63.00
2023-02-02T07:56:46.579Z,64.00
2023-02-02T07:59:16.186Z,61.00
2023-02-02T08:01:47.409Z,52.00
2023-02-02T08:06:47.058Z,59.00
2023-02-02T08:09:15.653Z,49.00
2023-02-02T08:11:45.147Z,60.00
2023-02-02T08:14:14.750Z,51.25
2023-02-02T08:16:43.758Z,55.50
2023-02-02T08:19:13.150Z,52.50
2023-02-02T08:24:49.497Z,57.00
2023-02-02T08:29:56.108Z,70.00
2023-02-02T08:32:25.827Z,48.50
2023-02-02T08:34:54.924Z,54.00
2023-02-02T08:37:24.224Z,58.50
2023-02-02T08:39:52.907Z,51.50
2023-02-02T09:27:18.515Z,23.00
2023-02-02T09:29:47.403Z,62.00
2023-02-02T09:32:15.885Z,26.00
2023-02-02T09:34:45.178Z,27.00
2023-02-02T09:37:13.968Z,24.00
2023-02-02T09:42:29.564Z,31.00
2023-02-02T09:45:24.094Z,40.00
2023-02-02T09:47:55.687Z,27.00
2023-02-02T09:50:30.337Z,37.00
2023-02-02T09:53:23.903Z,35.00
2023-02-02T09:55:56.172Z,61.00
2023-02-02T13:37:59.953Z,14.50
2023-02-02T13:40:36.844Z,15.33
2023-02-02T13:43:36.841Z,13.00
2023-02-02T13:46:24.590Z,5.50
2023-02-02T13:51:46.528Z,12.00
2023-02-02T13:57:33.662Z,13.50
2023-02-02T14:00:28.919Z,15.00
2023-02-02T14:03:03.508Z,28.00
2023-02-02T14:05:34.636Z,22.00
2023-02-02T14:08:17.758Z,27.00
2023-02-02T14:10:52.406Z,25.00
2023-02-02T14:16:21.505Z,28.00
2023-02-02T14:18:56.128Z,31.00
2023-02-02T14:21:33.735Z,28.50
2023-02-02T14:24:21.244Z,23.00
2023-02-02T14:26:53.071Z,33.00
2023-02-02T14:29:31.778Z,27.50
2023-02-02T14:32:20.889Z,15.00
2023-02-02T14:34:50.900Z,12.50
2023-02-02T14:37:26.448Z,12.00
2023-02-02T14:39:57.596Z,6.00
2023-02-02T14:45:30.051Z,72.00
2023-02-02T14:48:02.509Z,115.50
2023-02-02T14:50:46.817Z,67.50
2023-02-02T14:53:18.363Z,52.50
2023-02-02T15:14:59.463Z,17.00
2023-02-02T15:17:40.346Z,11.00
2023-02-02T15:20:34.723Z,10.00
2023-02-02T15:23:19.290Z,12.00
2023-02-02T15:26:09.611Z,18.00
2023-02-02T15:28:44.708Z,18.00
2023-02-02T15:31:23.088Z,28.00
2023-02-02T15:33:59.725Z,40.00
2023-02-02T15:36:39.723Z,54.00
2023-02-02T15:39:22.454Z,70.00
2023-02-02T15:42:15.982Z,45.00
2023-02-02T15:49:49.351Z,17.00
2023-02-02T15:52:26.235Z,17.50
2023-02-02T15:54:59.624Z,19.00
2023-02-02T15:57:28.513Z,23.00
2023-02-02T15:59:58.227Z,26.00
2023-02-02T16:02:26.712Z,28.00
2023-02-02T16:04:55.415Z,28.00
2023-02-02T16:10:03.045Z,31.00
2023-02-02T16:12:32.809Z,41.00
2023-02-02T16:15:01.805Z,41.00
2023-02-02T16:17:32.856Z,50.00
2023-02-02T16:20:11.060Z,35.00
2023-02-02T16:22:43.638Z,40.00
2023-02-02T16:25:19.508Z,41.50
2023-02-02T16:27:49.756Z,44.00
2023-02-02T16:30:39.245Z,41.00
2023-02-02T16:33:28.344Z,30.50
2023-02-02T16:35:57.229Z,29.00
2023-02-02T16:38:32.266Z,36.00
2023-02-02T16:41:26.747Z,29.50
2023-02-02T16:43:55.849Z,29.50
2023-02-02T16:46:48.000Z,35.00
2023-02-02T16:49:23.776Z,33.50
2023-02-02T16:52:14.823Z,28.00
2023-02-02T16:54:51.961Z,43.00
2023-02-02T16:57:27.770Z,42.50
2023-02-02T17:00:00.033Z,42.00
2023-02-02T17:02:35.843Z,35.00
2023-02-02T17:05:25.597Z,44.00
2023-02-02T17:10:32.288Z,36.00
2023-02-02T17:13:02.722Z,43.00
2023-02-02T17:25:44.516Z,40.00
2023-02-02T17:28:16.798Z,35.00
2023-02-02T17:30:48.344Z,50.00
2023-02-02T17:33:19.492Z,53.00
2023-02-02T17:35:56.014Z,49.00
2023-02-02T17:38:28.018Z,48.00
2023-02-02T17:43:31.677Z,45.00
2023-02-02T17:46:00.612Z,51.00
2023-02-02T17:48:29.966Z,52.00
2023-02-02T17:50:58.650Z,49.00
2023-02-02T17:53:32.595Z,48.00
2023-02-02T17:56:01.964Z,49.00
2023-02-02T17:58:30.746Z,52.00
2023-02-02T18:00:59.542Z,43.00
2023-02-02T18:03:35.695Z,52.00
2023-02-02T18:06:04.383Z,53.00
2023-02-02T18:08:33.993Z,52.00
2023-02-02T18:11:03.288Z,52.00
2023-02-02T18:23:27.942Z,40.00
2023-02-02T18:25:56.864Z,45.00
2023-02-02T18:58:37.192Z,39.50
2023-02-02T19:01:15.406Z,45.00
2023-02-02T19:03:48.998Z,39.00
2023-02-02T19:06:37.235Z,35.00
2023-02-02T19:09:06.952Z,40.00
2023-02-02T19:11:39.304Z,42.50
2023-02-02T19:14:24.898Z,46.00
2023-02-02T19:19:30.772Z,37.00
2023-02-02T19:22:03.857Z,43.00
2023-02-02T19:27:25.201Z,37.00
2023-02-02T19:30:03.926Z,40.00
2023-02-02T19:32:35.063Z,41.50
2023-02-02T19:35:07.230Z,45.00
2023-02-02T19:37:43.485Z,43.00
2023-02-02T19:45:23.979Z,52.00
2023-02-02T19:47:55.914Z,45.00
2023-02-02T19:50:36.812Z,49.00
2023-02-02T19:53:21.579Z,49.00
2023-02-02T19:55:53.575Z,37.50
2023-02-02T19:58:51.301Z,48.50
2023-02-02T20:01:28.646Z,48.00
2023-02-02T20:04:07.725Z,22.00
2023-02-02T20:06:59.039Z,46.00
2023-02-02T20:09:49.266Z,54.00
2023-02-02T20:15:37.294Z,55.50
2023-02-02T20:18:19.444Z,49.00
2023-02-02T20:20:57.495Z,60.00
2023-02-02T20:26:42.325Z,60.00
2023-02-02T20:29:40.248Z,57.00
2023-02-02T20:35:02.254Z,58.00
2023-02-02T20:37:36.516Z,61.00
2023-02-02T20:40:21.898Z,61.00
2023-02-02T20:42:59.610Z,57.00
2023-02-02T20:45:40.833Z,57.00
2023-02-02T20:48:17.044Z,58.00
2023-02-02T20:53:30.372Z,54.00
2023-02-02T20:56:02.316Z,52.00
2023-02-02T21:01:08.044Z,45.00
2023-02-02T21:11:08.783Z,54.00
2023-02-02T21:16:09.123Z,59.50
2023-02-02T21:18:39.520Z,54.00
2023-02-02T21:21:08.079Z,51.00
2023-02-02T21:28:59.192Z,54.00
2023-02-02T21:31:29.255Z,57.00
2023-02-02T21:34:03.952Z,55.00
2023-02-02T21:36:46.834Z,37.00
2023-02-02T21:39:30.372Z,37.00
2023-02-02T21:42:08.065Z,48.00
2023-02-02T21:44:49.926Z,48.00
2023-02-02T21:47:33.903Z,43.50
2023-02-02T21:50:28.649Z,46.00
2023-02-02T21:53:25.446Z,49.00
2023-02-02T21:56:00.542Z,46.00
2023-02-02T21:58:42.166Z,41.00
2023-02-02T22:01:20.831Z,44.00
2023-02-02T22:03:51.209Z,49.00
2023-02-02T22:06:36.896Z,39.00
2023-02-02T22:09:11.533Z,53.00
2023-02-02T22:11:55.464Z,57.00
2023-02-02T22:14:38.999Z,51.50
2023-02-02T22:17:34.929Z,49.00
2023-02-02T22:20:17.836Z,63.00
2023-02-02T22:22:49.192Z,65.00
2023-02-02T22:25:32.631Z,67.00
2023-02-02T22:28:16.526Z,54.00
2023-02-02T22:30:45.421Z,55.00
2023-02-02T22:33:14.749Z,60.00
2023-02-02T22:35:43.852Z,58.00
2023-02-02T22:38:21.344Z,51.00
2023-02-02T22:40:51.218Z,55.50
2023-02-02T22:43:21.378Z,61.50
2023-02-02T22:45:50.063Z,75.00
2023-02-02T22:48:19.169Z,56.00
2023-02-02T22:50:48.249Z,60.00
2023-02-02T22:55:45.321Z,70.00
2023-02-02T22:58:14.115Z,61.00
2023-02-02T23:00:42.683Z,70.00
2023-02-02T23:03:11.231Z,48.00
2023-02-02T23:05:39.841Z,69.00
2023-02-02T23:08:08.940Z,51.00
2023-02-02T23:10:37.852Z,54.00
2023-02-02T23:13:07.237Z,70.50
2023-02-02T23:15:36.021Z,66.00
2023-02-02T23:20:33.297Z,70.00
2023-02-02T23:23:01.975Z,66.00
2023-02-02T23:27:59.272Z,72.00
2023-02-02T23:30:28.398Z,61.00
2023-02-02T23:35:25.914Z,60.00
2023-02-02T23:40:23.081Z,69.00
2023-02-02T23:42:52.082Z,51.50
2023-02-02T23:47:49.136Z,60.00
2023-02-02T23:50:18.023Z,65.00
2023-02-02T23:52:46.819Z,58.00
2023-02-02T23:55:15.805Z,46.00
